sensor_id;sensor_type;location;lat;lon;timestamp;P1;durP1;ratioP1;P2;durP2;ratioP2
68475;SDS011;55464;48.266;14.188;2024-03-23T00:53:41;12.90;;;8.70;;
68475;SDS011;55464;48.266;14.188;2024-03-23T00:56:06;13.93;;;10.15;;
68475;SDS011;55464;48.266;14.188;2024-03-23T00:58:32;16.58;;;10.55;;
68475;SDS011;55464;48.266;14.188;2024-03-23T01:00:58;19.98;;;9.88;;
68475;SDS011;55464;48.266;14.188;2024-03-23T01:03:23;15.00;;;10.57;;
68475;SDS011;55464;48.266;14.188;2024-03-23T01:05:48;17.42;;;11.80;;
68475;SDS011;55464;48.266;14.188;2024-03-23T01:08:14;17.33;;;10.43;;
68475;SDS011;55464;48.266;14.188;2024-03-23T01:10:40;25.65;;;12.63;;
68475;SDS011;55464;48.266;14.188;2024-03-23T01:13:05;16.50;;;11.63;;
68475;SDS011;55464;48.266;14.188;2024-03-23T01:15:30;15.60;;;11.00;;
68475;SDS011;55464;48.266;14.188;2024-03-23T01:17:56;19.63;;;12.32;;
68475;SDS011;55464;48.266;14.188;2024-03-23T01:20:21;20.85;;;12.48;;
68475;SDS011;55464;48.266;14.188;2024-03-23T01:22:47;17.50;;;11.95;;
68475;SDS011;55464;48.266;14.188;2024-03-23T01:25:12;21.63;;;12.82;;
68475;SDS011;55464;48.266;14.188;2024-03-23T01:27:37;20.63;;;12.52;;
68475;SDS011;55464;48.266;14.188;2024-03-23T01:30:03;21.58;;;12.77;;
68475;SDS011;55464;48.266;14.188;2024-03-23T01:32:29;20.67;;;13.63;;
68475;SDS011;55464;48.266;14.188;2024-03-23T01:34:54;17.48;;;12.35;;
68475;SDS011;55464;48.266;14.188;2024-03-23T01:37:19;21.80;;;11.05;;
68475;SDS011;55464;48.266;14.188;2024-03-23T01:39:45;19.67;;;11.32;;
68475;SDS011;55464;48.266;14.188;2024-03-23T01:42:10;18.58;;;11.90;;
68475;SDS011;55464;48.266;14.188;2024-03-23T01:44:36;17.95;;;12.20;;
68475;SDS011;55464;48.266;14.188;2024-03-23T01:47:03;23.30;;;11.90;;
68475;SDS011;55464;48.266;14.188;2024-03-23T01:49:28;19.08;;;11.88;;
68475;SDS011;55464;48.266;14.188;2024-03-23T01:51:54;18.48;;;12.52;;
68475;SDS011;55464;48.266;14.188;2024-03-23T01:54:20;17.90;;;11.70;;
68475;SDS011;55464;48.266;14.188;2024-03-23T01:56:46;21.90;;;12.88;;
68475;SDS011;55464;48.266;14.188;2024-03-23T01:59:12;19.27;;;13.05;;
68475;SDS011;55464;48.266;14.188;2024-03-23T02:01:38;20.52;;;12.75;;
68475;SDS011;55464;48.266;14.188;2024-03-23T02:04:03;20.70;;;13.40;;
68475;SDS011;55464;48.266;14.188;2024-03-23T02:06:29;16.38;;;12.18;;
68475;SDS011;55464;48.266;14.188;2024-03-23T02:08:54;23.67;;;13.43;;
68475;SDS011;55464;48.266;14.188;2024-03-23T02:11:20;15.48;;;11.80;;
68475;SDS011;55464;48.266;14.188;2024-03-23T02:13:46;15.88;;;11.40;;
68475;SDS011;55464;48.266;14.188;2024-03-23T02:16:11;18.42;;;11.10;;
68475;SDS011;55464;48.266;14.188;2024-03-23T02:18:38;18.05;;;11.98;;
68475;SDS011;55464;48.266;14.188;2024-03-23T02:21:03;15.43;;;11.00;;
68475;SDS011;55464;48.266;14.188;2024-03-23T02:23:29;19.13;;;11.45;;
68475;SDS011;55464;48.266;14.188;2024-03-23T02:25:55;14.93;;;11.05;;
68475;SDS011;55464;48.266;14.188;2024-03-23T02:28:20;16.55;;;11.20;;
68475;SDS011;55464;48.266;14.188;2024-03-23T02:30:47;16.15;;;10.90;;
68475;SDS011;55464;48.266;14.188;2024-03-23T02:33:15;16.85;;;12.25;;
68475;SDS011;55464;48.266;14.188;2024-03-23T02:35:41;20.05;;;11.25;;
68475;SDS011;55464;48.266;14.188;2024-03-23T02:38:07;18.60;;;11.30;;
68475;SDS011;55464;48.266;14.188;2024-03-23T02:40:32;13.10;;;10.73;;
68475;SDS011;55464;48.266;14.188;2024-03-23T02:42:57;16.02;;;11.50;;
68475;SDS011;55464;48.266;14.188;2024-03-23T02:45:23;15.25;;;10.15;;
68475;SDS011;55464;48.266;14.188;2024-03-23T02:47:48;17.77;;;11.23;;
68475;SDS011;55464;48.266;14.188;2024-03-23T02:50:19;15.55;;;10.95;;
68475;SDS011;55464;48.266;14.188;2024-03-23T02:52:45;14.48;;;10.82;;
68475;SDS011;55464;48.266;14.188;2024-03-23T02:55:11;17.77;;;11.57;;
68475;SDS011;55464;48.266;14.188;2024-03-23T02:57:36;17.08;;;10.93;;
68475;SDS011;55464;48.266;14.188;2024-03-23T03:00:02;16.17;;;10.85;;
68475;SDS011;55464;48.266;14.188;2024-03-23T03:02:28;18.00;;;11.90;;
68475;SDS011;55464;48.266;14.188;2024-03-23T03:04:53;14.32;;;10.48;;
68475;SDS011;55464;48.266;14.188;2024-03-23T03:07:19;15.63;;;10.57;;
68475;SDS011;55464;48.266;14.188;2024-03-23T03:09:45;17.13;;;10.75;;
68475;SDS011;55464;48.266;14.188;2024-03-23T03:12:10;25.38;;;11.98;;
68475;SDS011;55464;48.266;14.188;2024-03-23T03:14:36;15.60;;;11.13;;
68475;SDS011;55464;48.266;14.188;2024-03-23T03:17:01;17.55;;;11.70;;
68475;SDS011;55464;48.266;14.188;2024-03-23T03:19:27;16.30;;;11.25;;
68475;SDS011;55464;48.266;14.188;2024-03-23T03:21:53;17.27;;;11.40;;
68475;SDS011;55464;48.266;14.188;2024-03-23T03:24:18;17.20;;;11.73;;
68475;SDS011;55464;48.266;14.188;2024-03-23T03:26:44;23.55;;;11.63;;
68475;SDS011;55464;48.266;14.188;2024-03-23T03:29:09;20.83;;;11.77;;
68475;SDS011;55464;48.266;14.188;2024-03-23T03:31:36;17.25;;;10.70;;
68475;SDS011;55464;48.266;14.188;2024-03-23T03:34:02;19.10;;;12.40;;
68475;SDS011;55464;48.266;14.188;2024-03-23T03:36:28;17.02;;;11.63;;
68475;SDS011;55464;48.266;14.188;2024-03-23T03:38:54;18.25;;;11.70;;
68475;SDS011;55464;48.266;14.188;2024-03-23T03:41:19;17.73;;;11.45;;
68475;SDS011;55464;48.266;14.188;2024-03-23T03:43:45;20.13;;;11.90;;
68475;SDS011;55464;48.266;14.188;2024-03-23T03:46:10;18.02;;;12.52;;
68475;SDS011;55464;48.266;14.188;2024-03-23T03:48:36;19.85;;;12.52;;
68475;SDS011;55464;48.266;14.188;2024-03-23T03:51:02;19.85;;;11.85;;
68475;SDS011;55464;48.266;14.188;2024-03-23T03:53:28;17.48;;;12.52;;
68475;SDS011;55464;48.266;14.188;2024-03-23T03:55:54;22.05;;;12.77;;
68475;SDS011;55464;48.266;14.188;2024-03-23T03:58:19;18.95;;;11.82;;
68475;SDS011;55464;48.266;14.188;2024-03-23T04:00:45;24.73;;;12.50;;
68475;SDS011;55464;48.266;14.188;2024-03-23T04:03:10;16.30;;;12.00;;
68475;SDS011;55464;48.266;14.188;2024-03-23T04:05:36;18.33;;;11.98;;
68475;SDS011;55464;48.266;14.188;2024-03-23T04:08:02;22.20;;;12.13;;
68475;SDS011;55464;48.266;14.188;2024-03-23T04:10:29;20.02;;;13.35;;
68475;SDS011;55464;48.266;14.188;2024-03-23T04:12:55;21.17;;;12.63;;
68475;SDS011;55464;48.266;14.188;2024-03-23T04:15:20;21.65;;;11.70;;
68475;SDS011;55464;48.266;14.188;2024-03-23T04:17:46;22.05;;;12.57;;
68475;SDS011;55464;48.266;14.188;2024-03-23T04:20:11;25.48;;;12.85;;
68475;SDS011;55464;48.266;14.188;2024-03-23T04:22:39;16.42;;;11.45;;
68475;SDS011;55464;48.266;14.188;2024-03-23T04:25:05;22.63;;;13.35;;
68475;SDS011;55464;48.266;14.188;2024-03-23T04:27:34;17.92;;;12.27;;
68475;SDS011;55464;48.266;14.188;2024-03-23T04:30:01;19.42;;;11.30;;
68475;SDS011;55464;48.266;14.188;2024-03-23T04:32:28;16.20;;;11.32;;
68475;SDS011;55464;48.266;14.188;2024-03-23T04:34:54;17.83;;;12.10;;
68475;SDS011;55464;48.266;14.188;2024-03-23T04:37:20;23.30;;;12.18;;
68475;SDS011;55464;48.266;14.188;2024-03-23T04:39:45;17.75;;;11.18;;
68475;SDS011;55464;48.266;14.188;2024-03-23T04:42:11;16.48;;;11.50;;
68475;SDS011;55464;48.266;14.188;2024-03-23T04:44:37;19.33;;;12.10;;
68475;SDS011;55464;48.266;14.188;2024-03-23T04:47:02;19.60;;;12.88;;
68475;SDS011;55464;48.266;14.188;2024-03-23T04:49:28;20.63;;;12.30;;
68475;SDS011;55464;48.266;14.188;2024-03-23T04:51:54;19.65;;;12.40;;
68475;SDS011;55464;48.266;14.188;2024-03-23T04:54:19;15.20;;;11.00;;
68475;SDS011;55464;48.266;14.188;2024-03-23T04:56:45;19.67;;;11.82;;
68475;SDS011;55464;48.266;14.188;2024-03-23T04:59:11;22.20;;;12.75;;
68475;SDS011;55464;48.266;14.188;2024-03-23T05:01:36;21.88;;;11.73;;
68475;SDS011;55464;48.266;14.188;2024-03-23T05:04:03;19.83;;;12.07;;
68475;SDS011;55464;48.266;14.188;2024-03-23T05:06:29;17.15;;;11.25;;
68475;SDS011;55464;48.266;14.188;2024-03-23T05:08:54;18.92;;;11.25;;
68475;SDS011;55464;48.266;14.188;2024-03-23T05:11:20;17.15;;;12.02;;
68475;SDS011;55464;48.266;14.188;2024-03-23T05:13:46;19.17;;;11.85;;
68475;SDS011;55464;48.266;14.188;2024-03-23T05:16:11;17.05;;;11.77;;
68475;SDS011;55464;48.266;14.188;2024-03-23T05:18:37;15.60;;;11.60;;
68475;SDS011;55464;48.266;14.188;2024-03-23T05:21:03;19.15;;;11.68;;
68475;SDS011;55464;48.266;14.188;2024-03-23T05:23:28;16.25;;;11.93;;
68475;SDS011;55464;48.266;14.188;2024-03-23T05:25:54;17.42;;;11.82;;
68475;SDS011;55464;48.266;14.188;2024-03-23T05:28:20;18.25;;;12.30;;
68475;SDS011;55464;48.266;14.188;2024-03-23T05:30:53;16.15;;;11.93;;
68475;SDS011;55464;48.266;14.188;2024-03-23T05:33:19;20.23;;;12.30;;
68475;SDS011;55464;48.266;14.188;2024-03-23T05:35:45;16.75;;;11.68;;
68475;SDS011;55464;48.266;14.188;2024-03-23T05:38:13;19.00;;;11.57;;
68475;SDS011;55464;48.266;14.188;2024-03-23T05:40:39;19.27;;;11.07;;
68475;SDS011;55464;48.266;14.188;2024-03-23T05:43:05;21.88;;;12.57;;
68475;SDS011;55464;48.266;14.188;2024-03-23T05:45:31;17.88;;;12.13;;
68475;SDS011;55464;48.266;14.188;2024-03-23T05:47:56;19.88;;;12.40;;
68475;SDS011;55464;48.266;14.188;2024-03-23T05:50:22;17.50;;;11.98;;
68475;SDS011;55464;48.266;14.188;2024-03-23T05:52:51;16.60;;;11.65;;
68475;SDS011;55464;48.266;14.188;2024-03-23T05:55:17;17.35;;;12.63;;
68475;SDS011;55464;48.266;14.188;2024-03-23T05:57:43;19.65;;;12.80;;
68475;SDS011;55464;48.266;14.188;2024-03-23T06:00:09;19.98;;;12.65;;
68475;SDS011;55464;48.266;14.188;2024-03-23T06:02:41;17.85;;;12.23;;
68475;SDS011;55464;48.266;14.188;2024-03-23T06:05:10;20.92;;;12.63;;
68475;SDS011;55464;48.266;14.188;2024-03-23T06:07:36;20.40;;;12.27;;
68475;SDS011;55464;48.266;14.188;2024-03-23T06:10:01;19.20;;;12.55;;
68475;SDS011;55464;48.266;14.188;2024-03-23T06:12:27;22.92;;;12.70;;
68475;SDS011;55464;48.266;14.188;2024-03-23T06:14:52;19.70;;;12.88;;
68475;SDS011;55464;48.266;14.188;2024-03-23T06:17:18;19.15;;;12.45;;
68475;SDS011;55464;48.266;14.188;2024-03-23T06:19:44;20.23;;;13.05;;
68475;SDS011;55464;48.266;14.188;2024-03-23T06:22:10;20.75;;;13.07;;
68475;SDS011;55464;48.266;14.188;2024-03-23T06:24:35;23.38;;;13.43;;
68475;SDS011;55464;48.266;14.188;2024-03-23T06:27:01;20.60;;;13.07;;
68475;SDS011;55464;48.266;14.188;2024-03-23T06:29:26;23.85;;;11.68;;
68475;SDS011;55464;48.266;14.188;2024-03-23T06:31:54;19.52;;;11.93;;
68475;SDS011;55464;48.266;14.188;2024-03-23T06:34:20;21.15;;;12.90;;
68475;SDS011;55464;48.266;14.188;2024-03-23T06:36:47;22.25;;;11.60;;
68475;SDS011;55464;48.266;14.188;2024-03-23T06:39:14;18.05;;;12.50;;
68475;SDS011;55464;48.266;14.188;2024-03-23T06:41:50;15.98;;;12.02;;
68475;SDS011;55464;48.266;14.188;2024-03-23T06:44:17;15.60;;;11.43;;
68475;SDS011;55464;48.266;14.188;2024-03-23T06:46:42;15.70;;;10.95;;
68475;SDS011;55464;48.266;14.188;2024-03-23T06:49:08;21.65;;;11.65;;
68475;SDS011;55464;48.266;14.188;2024-03-23T06:51:33;16.90;;;11.55;;
68475;SDS011;55464;48.266;14.188;2024-03-23T06:53:59;15.15;;;11.02;;
68475;SDS011;55464;48.266;14.188;2024-03-23T06:56:24;18.60;;;11.07;;
68475;SDS011;55464;48.266;14.188;2024-03-23T06:58:50;16.00;;;11.25;;
68475;SDS011;55464;48.266;14.188;2024-03-23T07:01:15;17.10;;;10.60;;
68475;SDS011;55464;48.266;14.188;2024-03-23T07:03:41;15.82;;;9.85;;
68475;SDS011;55464;48.266;14.188;2024-03-23T07:06:06;12.65;;;9.40;;
68475;SDS011;55464;48.266;14.188;2024-03-23T07:08:35;13.30;;;10.25;;
68475;SDS011;55464;48.266;14.188;2024-03-23T07:11:00;15.57;;;10.25;;
68475;SDS011;55464;48.266;14.188;2024-03-23T07:13:27;16.33;;;12.05;;
68475;SDS011;55464;48.266;14.188;2024-03-23T07:15:53;19.10;;;13.15;;
68475;SDS011;55464;48.266;14.188;2024-03-23T07:18:20;20.55;;;11.15;;
68475;SDS011;55464;48.266;14.188;2024-03-23T07:20:56;17.35;;;11.45;;
68475;SDS011;55464;48.266;14.188;2024-03-23T07:23:23;20.83;;;11.13;;
68475;SDS011;55464;48.266;14.188;2024-03-23T07:25:58;18.45;;;11.13;;
68475;SDS011;55464;48.266;14.188;2024-03-23T07:28:27;26.67;;;11.38;;
68475;SDS011;55464;48.266;14.188;2024-03-23T07:31:03;20.80;;;11.73;;
68475;SDS011;55464;48.266;14.188;2024-03-23T07:33:34;15.18;;;9.77;;
68475;SDS011;55464;48.266;14.188;2024-03-23T07:36:01;18.30;;;11.27;;
68475;SDS011;55464;48.266;14.188;2024-03-23T07:38:27;15.32;;;10.65;;
68475;SDS011;55464;48.266;14.188;2024-03-23T07:41:03;16.38;;;11.07;;
68475;SDS011;55464;48.266;14.188;2024-03-23T07:43:37;20.55;;;11.60;;
68475;SDS011;55464;48.266;14.188;2024-03-23T07:46:03;18.20;;;10.45;;
68475;SDS011;55464;48.266;14.188;2024-03-23T07:48:29;18.52;;;11.15;;
68475;SDS011;55464;48.266;14.188;2024-03-23T07:50:56;13.65;;;9.85;;
68475;SDS011;55464;48.266;14.188;2024-03-23T07:53:24;14.40;;;9.80;;
68475;SDS011;55464;48.266;14.188;2024-03-23T07:56:00;15.32;;;9.57;;
68475;SDS011;55464;48.266;14.188;2024-03-23T07:58:28;13.57;;;8.73;;
68475;SDS011;55464;48.266;14.188;2024-03-23T08:01:02;13.65;;;8.10;;
68475;SDS011;55464;48.266;14.188;2024-03-23T08:03:30;13.05;;;8.70;;
68475;SDS011;55464;48.266;14.188;2024-03-23T08:05:55;12.82;;;8.38;;
68475;SDS011;55464;48.266;14.188;2024-03-23T08:08:21;10.93;;;8.57;;
68475;SDS011;55464;48.266;14.188;2024-03-23T08:10:47;14.60;;;8.52;;
68475;SDS011;55464;48.266;14.188;2024-03-23T08:13:13;15.07;;;9.50;;
68475;SDS011;55464;48.266;14.188;2024-03-23T08:15:38;18.63;;;9.25;;
68475;SDS011;55464;48.266;14.188;2024-03-23T08:18:04;18.65;;;9.80;;
68475;SDS011;55464;48.266;14.188;2024-03-23T08:20:29;12.77;;;8.27;;
68475;SDS011;55464;48.266;14.188;2024-03-23T08:22:55;13.32;;;8.23;;
68475;SDS011;55464;48.266;14.188;2024-03-23T08:25:21;11.50;;;8.18;;
68475;SDS011;55464;48.266;14.188;2024-03-23T08:27:46;13.88;;;8.45;;
68475;SDS011;55464;48.266;14.188;2024-03-23T08:30:12;11.77;;;7.90;;
68475;SDS011;55464;48.266;14.188;2024-03-23T08:32:37;9.85;;;7.15;;
68475;SDS011;55464;48.266;14.188;2024-03-23T08:35:03;9.48;;;6.07;;
68475;SDS011;55464;48.266;14.188;2024-03-23T08:37:29;12.57;;;6.78;;
68475;SDS011;55464;48.266;14.188;2024-03-23T08:39:55;9.57;;;6.32;;
68475;SDS011;55464;48.266;14.188;2024-03-23T08:42:20;10.38;;;6.82;;
68475;SDS011;55464;48.266;14.188;2024-03-23T08:44:46;10.35;;;5.93;;
68475;SDS011;55464;48.266;14.188;2024-03-23T08:47:14;8.70;;;6.20;;
68475;SDS011;55464;48.266;14.188;2024-03-23T08:49:40;12.85;;;5.65;;
68475;SDS011;55464;48.266;14.188;2024-03-23T08:52:06;12.23;;;6.55;;
68475;SDS011;55464;48.266;14.188;2024-03-23T08:54:32;8.73;;;6.07;;
68475;SDS011;55464;48.266;14.188;2024-03-23T08:56:57;7.68;;;5.72;;
68475;SDS011;55464;48.266;14.188;2024-03-23T08:59:23;9.77;;;6.03;;
68475;SDS011;55464;48.266;14.188;2024-03-23T09:01:49;6.55;;;5.85;;
68475;SDS011;55464;48.266;14.188;2024-03-23T09:04:14;9.63;;;5.82;;
68475;SDS011;55464;48.266;14.188;2024-03-23T09:06:42;7.97;;;5.90;;
68475;SDS011;55464;48.266;14.188;2024-03-23T09:09:07;8.85;;;5.90;;
68475;SDS011;55464;48.266;14.188;2024-03-23T09:11:33;6.30;;;5.35;;
68475;SDS011;55464;48.266;14.188;2024-03-23T09:13:58;13.60;;;6.00;;
68475;SDS011;55464;48.266;14.188;2024-03-23T09:16:24;6.95;;;5.60;;
68475;SDS011;55464;48.266;14.188;2024-03-23T09:18:49;8.68;;;5.90;;
68475;SDS011;55464;48.266;14.188;2024-03-23T09:21:15;5.53;;;4.70;;
68475;SDS011;55464;48.266;14.188;2024-03-23T09:23:43;7.72;;;5.50;;
68475;SDS011;55464;48.266;14.188;2024-03-23T09:26:09;6.65;;;5.13;;
68475;SDS011;55464;48.266;14.188;2024-03-23T09:28:34;8.02;;;4.75;;
68475;SDS011;55464;48.266;14.188;2024-03-23T09:31:03;6.47;;;4.88;;
68475;SDS011;55464;48.266;14.188;2024-03-23T09:33:29;5.85;;;4.60;;
68475;SDS011;55464;48.266;14.188;2024-03-23T09:35:55;8.85;;;4.57;;
68475;SDS011;55464;48.266;14.188;2024-03-23T09:38:21;6.07;;;4.43;;
68475;SDS011;55464;48.266;14.188;2024-03-23T09:40:50;6.95;;;4.60;;
68475;SDS011;55464;48.266;14.188;2024-03-23T09:43:18;7.00;;;4.50;;
68475;SDS011;55464;48.266;14.188;2024-03-23T09:45:44;7.15;;;4.70;;
68475;SDS011;55464;48.266;14.188;2024-03-23T09:48:10;5.30;;;4.03;;
68475;SDS011;55464;48.266;14.188;2024-03-23T09:50:39;5.43;;;3.00;;
68475;SDS011;55464;48.266;14.188;2024-03-23T09:53:09;6.03;;;3.65;;
68475;SDS011;55464;48.266;14.188;2024-03-23T09:55:39;5.22;;;3.60;;
68475;SDS011;55464;48.266;14.188;2024-03-23T09:58:06;6.53;;;3.60;;
68475;SDS011;55464;48.266;14.188;2024-03-23T10:00:37;7.45;;;4.28;;
68475;SDS011;55464;48.266;14.188;2024-03-23T10:03:03;6.97;;;4.10;;
68475;SDS011;55464;48.266;14.188;2024-03-23T10:05:31;11.95;;;3.60;;
68475;SDS011;55464;48.266;14.188;2024-03-23T10:07:57;7.90;;;3.15;;
68475;SDS011;55464;48.266;14.188;2024-03-23T10:10:22;9.85;;;2.55;;
68475;SDS011;55464;48.266;14.188;2024-03-23T10:12:50;12.90;;;1.88;;
68475;SDS011;55464;48.266;14.188;2024-03-23T10:15:23;8.63;;;0.90;;
68475;SDS011;55464;48.266;14.188;2024-03-23T10:17:49;2.50;;;1.20;;
68475;SDS011;55464;48.266;14.188;2024-03-23T10:20:21;2.22;;;1.10;;
68475;SDS011;55464;48.266;14.188;2024-03-23T10:22:48;5.18;;;1.42;;
68475;SDS011;55464;48.266;14.188;2024-03-23T10:25:16;8.65;;;1.70;;
68475;SDS011;55464;48.266;14.188;2024-03-23T10:27:42;2.70;;;1.33;;
68475;SDS011;55464;48.266;14.188;2024-03-23T10:30:14;5.82;;;2.65;;
68475;SDS011;55464;48.266;14.188;2024-03-23T10:32:40;7.13;;;1.10;;
68475;SDS011;55464;48.266;14.188;2024-03-23T10:35:16;1.38;;;0.82;;
68475;SDS011;55464;48.266;14.188;2024-03-23T10:37:43;1.80;;;0.63;;
68475;SDS011;55464;48.266;14.188;2024-03-23T10:40:10;9.18;;;0.82;;
68475;SDS011;55464;48.266;14.188;2024-03-23T10:42:37;5.90;;;1.23;;
68475;SDS011;55464;48.266;14.188;2024-03-23T10:45:04;10.45;;;1.15;;
68475;SDS011;55464;48.266;14.188;2024-03-23T10:47:30;5.82;;;1.10;;
68475;SDS011;55464;48.266;14.188;2024-03-23T10:49:56;0.70;;;0.70;;
68475;SDS011;55464;48.266;14.188;2024-03-23T10:52:22;1.00;;;0.50;;
68475;SDS011;55464;48.266;14.188;2024-03-23T10:54:48;6.55;;;1.17;;
68475;SDS011;55464;48.266;14.188;2024-03-23T10:57:26;2.40;;;0.70;;
68475;SDS011;55464;48.266;14.188;2024-03-23T11:00:04;1.33;;;0.70;;
68475;SDS011;55464;48.266;14.188;2024-03-23T11:02:30;2.08;;;0.73;;
68475;SDS011;55464;48.266;14.188;2024-03-23T11:04:56;1.55;;;0.70;;
68475;SDS011;55464;48.266;14.188;2024-03-23T11:09:54;1.23;;;0.70;;
68475;SDS011;55464;48.266;14.188;2024-03-23T11:14:45;1.75;;;0.80;;
68475;SDS011;55464;48.266;14.188;2024-03-23T11:17:11;2.97;;;0.80;;
68475;SDS011;55464;48.266;14.188;2024-03-23T11:19:36;0.82;;;0.70;;
68475;SDS011;55464;48.266;14.188;2024-03-23T11:22:02;0.70;;;0.70;;
68475;SDS011;55464;48.266;14.188;2024-03-23T11:24:29;0.90;;;0.70;;
68475;SDS011;55464;48.266;14.188;2024-03-23T11:26:55;2.40;;;0.70;;
68475;SDS011;55464;48.266;14.188;2024-03-23T11:29:21;1.38;;;0.70;;
68475;SDS011;55464;48.266;14.188;2024-03-23T11:31:50;3.00;;;0.65;;
68475;SDS011;55464;48.266;14.188;2024-03-23T11:34:16;0.88;;;0.50;;
68475;SDS011;55464;48.266;14.188;2024-03-23T11:36:43;1.27;;;0.80;;
68475;SDS011;55464;48.266;14.188;2024-03-23T11:39:12;0.70;;;0.60;;
68475;SDS011;55464;48.266;14.188;2024-03-23T11:41:49;2.85;;;0.90;;
68475;SDS011;55464;48.266;14.188;2024-03-23T11:46:41;0.82;;;0.82;;
68475;SDS011;55464;48.266;14.188;2024-03-23T11:49:06;0.95;;;0.95;;
68475;SDS011;55464;48.266;14.188;2024-03-23T11:51:32;1.00;;;0.70;;
68475;SDS011;55464;48.266;14.188;2024-03-23T11:54:07;3.53;;;1.77;;
68475;SDS011;55464;48.266;14.188;2024-03-23T11:56:33;0.82;;;0.80;;
68475;SDS011;55464;48.266;14.188;2024-03-23T11:58:58;1.70;;;0.77;;
68475;SDS011;55464;48.266;14.188;2024-03-23T12:01:24;0.95;;;0.95;;
68475;SDS011;55464;48.266;14.188;2024-03-23T12:03:49;1.77;;;0.82;;
68475;SDS011;55464;48.266;14.188;2024-03-23T12:06:19;3.03;;;0.95;;
68475;SDS011;55464;48.266;14.188;2024-03-23T12:08:45;1.50;;;1.00;;
68475;SDS011;55464;48.266;14.188;2024-03-23T12:11:11;2.60;;;1.20;;
68475;SDS011;55464;48.266;14.188;2024-03-23T12:13:38;1.98;;;1.42;;
68475;SDS011;55464;48.266;14.188;2024-03-23T12:16:17;0.80;;;0.80;;
68475;SDS011;55464;48.266;14.188;2024-03-23T12:18:45;1.67;;;1.02;;
68475;SDS011;55464;48.266;14.188;2024-03-23T12:21:12;1.02;;;0.90;;
68475;SDS011;55464;48.266;14.188;2024-03-23T12:23:41;2.35;;;1.17;;
68475;SDS011;55464;48.266;14.188;2024-03-23T12:26:09;2.38;;;1.42;;
68475;SDS011;55464;48.266;14.188;2024-03-23T12:28:35;4.03;;;1.20;;
68475;SDS011;55464;48.266;14.188;2024-03-23T12:31:00;2.28;;;1.33;;
68475;SDS011;55464;48.266;14.188;2024-03-23T12:33:26;1.50;;;1.10;;
68475;SDS011;55464;48.266;14.188;2024-03-23T12:35:51;1.98;;;1.10;;
68475;SDS011;55464;48.266;14.188;2024-03-23T12:38:17;1.40;;;1.30;;
68475;SDS011;55464;48.266;14.188;2024-03-23T12:40:49;2.25;;;1.27;;
68475;SDS011;55464;48.266;14.188;2024-03-23T12:43:16;1.33;;;1.23;;
68475;SDS011;55464;48.266;14.188;2024-03-23T12:45:48;1.42;;;1.33;;
68475;SDS011;55464;48.266;14.188;2024-03-23T12:48:15;1.63;;;1.15;;
68475;SDS011;55464;48.266;14.188;2024-03-23T12:50:41;1.80;;;1.40;;
68475;SDS011;55464;48.266;14.188;2024-03-23T12:53:06;2.42;;;1.10;;
68475;SDS011;55464;48.266;14.188;2024-03-23T12:55:32;4.20;;;1.13;;
68475;SDS011;55464;48.266;14.188;2024-03-23T12:58:00;2.80;;;1.05;;
68475;SDS011;55464;48.266;14.188;2024-03-23T13:00:25;1.77;;;1.27;;
68475;SDS011;55464;48.266;14.188;2024-03-23T13:02:51;1.40;;;0.93;;
68475;SDS011;55464;48.266;14.188;2024-03-23T13:05:16;2.33;;;1.27;;
68475;SDS011;55464;48.266;14.188;2024-03-23T13:07:42;5.78;;;2.92;;
68475;SDS011;55464;48.266;14.188;2024-03-23T13:10:07;1.35;;;1.25;;
68475;SDS011;55464;48.266;14.188;2024-03-23T13:12:34;1.42;;;1.00;;
68475;SDS011;55464;48.266;14.188;2024-03-23T13:14:59;1.13;;;0.90;;
68475;SDS011;55464;48.266;14.188;2024-03-23T13:17:26;1.75;;;1.05;;
68475;SDS011;55464;48.266;14.188;2024-03-23T13:19:55;1.15;;;0.80;;
68475;SDS011;55464;48.266;14.188;2024-03-23T13:22:21;0.95;;;0.90;;
68475;SDS011;55464;48.266;14.188;2024-03-23T13:24:46;1.27;;;0.77;;
68475;SDS011;55464;48.266;14.188;2024-03-23T13:27:12;0.80;;;0.80;;
68475;SDS011;55464;48.266;14.188;2024-03-23T13:29:37;2.55;;;0.70;;
68475;SDS011;55464;48.266;14.188;2024-03-23T13:32:03;1.25;;;0.50;;
68475;SDS011;55464;48.266;14.188;2024-03-23T13:34:28;1.85;;;0.50;;
68475;SDS011;55464;48.266;14.188;2024-03-23T13:36:54;0.60;;;0.60;;
68475;SDS011;55464;48.266;14.188;2024-03-23T13:39:23;0.47;;;0.47;;
68475;SDS011;55464;48.266;14.188;2024-03-23T13:41:48;0.80;;;0.45;;
68475;SDS011;55464;48.266;14.188;2024-03-23T13:44:14;0.43;;;0.43;;
68475;SDS011;55464;48.266;14.188;2024-03-23T13:46:40;0.30;;;0.30;;
68475;SDS011;55464;48.266;14.188;2024-03-23T13:49:07;0.35;;;0.35;;
68475;SDS011;55464;48.266;14.188;2024-03-23T13:51:46;1.20;;;0.38;;
68475;SDS011;55464;48.266;14.188;2024-03-23T13:54:12;0.40;;;0.30;;
68475;SDS011;55464;48.266;14.188;2024-03-23T13:56:37;0.50;;;0.40;;
68475;SDS011;55464;48.266;14.188;2024-03-23T13:59:03;3.10;;;0.52;;
68475;SDS011;55464;48.266;14.188;2024-03-23T14:01:28;0.50;;;0.40;;
68475;SDS011;55464;48.266;14.188;2024-03-23T14:03:54;0.93;;;0.40;;
68475;SDS011;55464;48.266;14.188;2024-03-23T14:06:20;0.40;;;0.40;;
68475;SDS011;55464;48.266;14.188;2024-03-23T14:08:46;0.55;;;0.55;;
68475;SDS011;55464;48.266;14.188;2024-03-23T14:11:13;0.50;;;0.50;;
68475;SDS011;55464;48.266;14.188;2024-03-23T14:13:38;0.70;;;0.57;;
68475;SDS011;55464;48.266;14.188;2024-03-23T14:16:04;0.75;;;0.70;;
68475;SDS011;55464;48.266;14.188;2024-03-23T14:18:30;1.88;;;1.10;;
68475;SDS011;55464;48.266;14.188;2024-03-23T14:20:56;0.85;;;0.85;;
68475;SDS011;55464;48.266;14.188;2024-03-23T14:23:25;1.00;;;0.90;;
68475;SDS011;55464;48.266;14.188;2024-03-23T14:25:54;0.90;;;0.73;;
68475;SDS011;55464;48.266;14.188;2024-03-23T14:28:21;1.10;;;0.68;;
68475;SDS011;55464;48.266;14.188;2024-03-23T14:30:47;0.90;;;0.80;;
68475;SDS011;55464;48.266;14.188;2024-03-23T14:33:17;2.47;;;0.80;;
68475;SDS011;55464;48.266;14.188;2024-03-23T14:35:43;0.70;;;0.70;;
68475;SDS011;55464;48.266;14.188;2024-03-23T14:38:17;0.57;;;0.57;;
68475;SDS011;55464;48.266;14.188;2024-03-23T14:40:43;0.63;;;0.63;;
68475;SDS011;55464;48.266;14.188;2024-03-23T14:43:09;0.88;;;0.88;;
68475;SDS011;55464;48.266;14.188;2024-03-23T14:45:34;1.25;;;0.80;;
68475;SDS011;55464;48.266;14.188;2024-03-23T14:48:00;0.90;;;0.90;;
68475;SDS011;55464;48.266;14.188;2024-03-23T14:50:25;1.75;;;0.80;;
68475;SDS011;55464;48.266;14.188;2024-03-23T14:52:51;4.10;;;1.00;;
68475;SDS011;55464;48.266;14.188;2024-03-23T14:55:17;4.55;;;1.45;;
68475;SDS011;55464;48.266;14.188;2024-03-23T14:57:42;1.40;;;1.30;;
68475;SDS011;55464;48.266;14.188;2024-03-23T15:00:08;2.50;;;0.93;;
68475;SDS011;55464;48.266;14.188;2024-03-23T15:02:38;4.13;;;1.20;;
68475;SDS011;55464;48.266;14.188;2024-03-23T15:05:05;2.45;;;1.10;;
68475;SDS011;55464;48.266;14.188;2024-03-23T15:07:35;4.13;;;0.70;;
68475;SDS011;55464;48.266;14.188;2024-03-23T15:10:03;1.02;;;0.85;;
68475;SDS011;55464;48.266;14.188;2024-03-23T15:12:30;2.08;;;1.02;;
68475;SDS011;55464;48.266;14.188;2024-03-23T15:14:57;1.27;;;1.00;;
68475;SDS011;55464;48.266;14.188;2024-03-23T15:17:22;3.63;;;1.20;;